TimeCDT,TemperatureF,Dew PointF,Humidity,Sea Level PressureIn,VisibilityMPH,Wind Direction,Wind SpeedMPH,Gust SpeedMPH,PrecipitationIn,Events,Conditions,WindDirDegrees,DateUTC
12:15 AM,73.4,69.8,88,30.08,10.0,South,8.1,-,N/A,,Clear,190,2013-09-11 05:15:00
12:35 AM,73.4,69.8,88,30.07,10.0,SSW,6.9,-,N/A,,Clear,200,2013-09-11 05:35:00
12:55 AM,73.4,69.8,88,30.06,10.0,South,6.9,-,N/A,,Clear,190,2013-09-11 05:55:00
1:15 AM,73.4,69.8,88,30.07,10.0,SSW,6.9,-,N/A,,Clear,200,2013-09-11 06:15:00
1:35 AM,73.4,69.8,88,30.06,10.0,South,6.9,-,N/A,,Clear,190,2013-09-11 06:35:00
1:55 AM,73.4,69.8,88,30.07,10.0,SSW,6.9,-,N/A,,Clear,200,2013-09-11 06:55:00
2:15 AM,73.4,69.8,88,30.07,10.0,South,6.9,-,N/A,,Clear,180,2013-09-11 07:15:00
2:35 AM,71.6,69.8,94,30.07,10.0,South,6.9,-,N/A,,Clear,190,2013-09-11 07:35:00
2:55 AM,73.4,69.8,88,30.07,10.0,South,8.1,-,N/A,,Clear,190,2013-09-11 07:55:00
3:15 AM,73.4,69.8,88,30.07,10.0,SSW,6.9,-,N/A,,Clear,200,2013-09-11 08:15:00
3:35 AM,71.6,69.8,94,30.07,7.0,SSW,8.1,-,N/A,,Clear,200,2013-09-11 08:35:00
3:55 AM,71.6,69.8,94,30.07,7.0,SSW,6.9,-,N/A,,Clear,200,2013-09-11 08:55:00
4:15 AM,71.6,69.8,94,30.07,7.0,SSW,6.9,-,N/A,,Clear,210,2013-09-11 09:15:00
4:35 AM,71.6,69.8,94,30.07,7.0,SSW,6.9,-,N/A,,Clear,210,2013-09-11 09:35:00
4:55 AM,71.6,69.8,94,30.07,7.0,SW,8.1,-,N/A,,Clear,220,2013-09-11 09:55:00
5:15 AM,71.6,69.8,94,30.07,7.0,SSW,5.8,-,N/A,,Clear,200,2013-09-11 10:15:00
5:35 AM,71.6,69.8,94,30.08,7.0,SW,6.9,-,N/A,,Clear,220,2013-09-11 10:35:00
5:55 AM,71.6,69.8,94,30.08,7.0,SSW,6.9,-,N/A,,Clear,210,2013-09-11 10:55:00
6:15 AM,69.8,68.0,94,30.09,5.0,SSW,5.8,-,N/A,,Clear,210,2013-09-11 11:15:00
6:35 AM,69.8,68.0,94,30.09,5.0,SSW,6.9,-,N/A,,Clear,200,2013-09-11 11:35:00
6:55 AM,69.8,68.0,94,30.09,4.0,SSW,8.1,-,N/A,,Clear,200,2013-09-11 11:55:00
7:15 AM,71.6,69.8,94,30.10,5.0,SSW,8.1,-,N/A,,Clear,200,2013-09-11 12:15:00
7:35 AM,71.6,69.8,94,30.10,7.0,SW,9.2,-,N/A,,Clear,220,2013-09-11 12:35:00
7:55 AM,73.4,69.8,88,30.10,7.0,SSW,8.1,-,N/A,,Clear,210,2013-09-11 12:55:00
8:15 AM,77.0,69.8,78,30.09,10.0,SW,9.2,-,N/A,,Clear,220,2013-09-11 13:15:00
8:35 AM,78.8,69.8,74,30.10,10.0,SW,5.8,-,N/A,,Clear,220,2013-09-11 13:35:00
8:55 AM,78.8,68.0,69,30.10,10.0,SW,10.4,-,N/A,,Scattered Clouds,230,2013-09-11 13:55:00
9:15 AM,80.6,68.0,65,30.10,10.0,SW,9.2,-,N/A,,Scattered Clouds,230,2013-09-11 14:15:00
9:35 AM,82.4,68.0,62,30.09,10.0,SW,9.2,-,N/A,,Clear,220,2013-09-11 14:35:00
9:55 AM,82.4,68.0,62,30.09,10.0,WSW,10.4,-,N/A,,Clear,240,2013-09-11 14:55:00
10:15 AM,84.2,68.0,58,30.09,10.0,SW,11.5,-,N/A,,Clear,230,2013-09-11 15:15:00
10:35 AM,86.0,68.0,55,30.08,10.0,SW,9.2,-,N/A,,Clear,220,2013-09-11 15:35:00
10:55 AM,87.8,64.4,46,30.09,10.0,WSW,9.2,16.1,N/A,,Clear,240,2013-09-11 15:55:00
11:15 AM,87.8,62.6,43,30.08,10.0,WSW,9.2,-,N/A,,Clear,250,2013-09-11 16:15:00
11:35 AM,89.6,62.6,40,30.07,10.0,SW,10.4,-,N/A,,Clear,230,2013-09-11 16:35:00
11:55 AM,89.6,62.6,40,30.06,10.0,SSW,5.8,-,N/A,,Clear,210,2013-09-11 16:55:00
12:15 PM,91.4,60.8,36,30.06,10.0,WSW,6.9,-,N/A,,Clear,250,2013-09-11 17:15:00
12:35 PM,91.4,60.8,36,30.05,10.0,WSW,8.1,-,N/A,,Clear,240,2013-09-11 17:35:00
12:55 PM,91.4,59.0,34,30.05,10.0,WSW,10.4,18.4,N/A,,Clear,240,2013-09-11 17:55:00
1:15 PM,93.2,59.0,32,30.04,10.0,WSW,8.1,18.4,N/A,,Clear,250,2013-09-11 18:15:00
1:35 PM,93.2,57.2,30,30.04,10.0,SW,12.7,18.4,N/A,,Clear,230,2013-09-11 18:35:00
1:55 PM,95.0,57.2,28,30.03,10.0,SW,13.8,17.3,N/A,,Clear,230,2013-09-11 18:55:00
2:15 PM,95.0,55.4,26,30.03,10.0,WSW,16.1,23.0,N/A,,Clear,250,2013-09-11 19:15:00
2:35 PM,95.0,55.4,26,30.02,10.0,SW,16.1,21.9,N/A,,Clear,230,2013-09-11 19:35:00
2:55 PM,95.0,55.4,26,30.01,10.0,WSW,15.0,23.0,N/A,,Scattered Clouds,250,2013-09-11 19:55:00
3:15 PM,95.0,55.4,26,30.00,10.0,WSW,13.8,18.4,N/A,,Scattered Clouds,250,2013-09-11 20:15:00
3:35 PM,95.0,53.6,25,30.00,10.0,WSW,12.7,20.7,N/A,,Clear,250,2013-09-11 20:35:00
3:55 PM,95.0,55.4,26,29.99,10.0,West,9.2,17.3,N/A,,Scattered Clouds,260,2013-09-11 20:55:00
4:15 PM,91.4,55.4,29,29.99,10.0,WSW,11.5,19.6,N/A,,Scattered Clouds,250,2013-09-11 21:15:00
4:35 PM,93.2,51.8,24,29.99,10.0,West,13.8,21.9,N/A,,Clear,260,2013-09-11 21:35:00
4:55 PM,91.4,51.8,26,29.99,10.0,West,12.7,24.2,N/A,,Clear,260,2013-09-11 21:55:00
5:15 PM,89.6,53.6,29,29.99,10.0,West,12.7,17.3,N/A,,Clear,260,2013-09-11 22:15:00
5:35 PM,89.6,57.2,33,29.99,10.0,West,10.4,-,N/A,,Clear,280,2013-09-11 22:35:00
5:55 PM,87.8,59.0,38,29.99,10.0,West,8.1,-,N/A,,Clear,280,2013-09-11 22:55:00
6:15 PM,87.8,60.8,40,30.00,10.0,WNW,8.1,-,N/A,,Clear,290,2013-09-11 23:15:00
6:35 PM,86.0,62.6,45,30.00,10.0,North,4.6,-,N/A,,Clear,350,2013-09-11 23:35:00
6:55 PM,82.4,62.6,51,30.01,10.0,North,8.1,-,N/A,,Clear,350,2013-09-11 23:55:00
7:15 PM,80.6,62.6,54,30.01,10.0,Calm,Calm,-,N/A,,Clear,0,2013-09-12 00:15:00
7:35 PM,78.8,64.4,61,30.01,10.0,Calm,Calm,-,N/A,,Clear,0,2013-09-12 00:35:00
7:55 PM,78.8,64.4,61,30.02,10.0,Calm,Calm,-,N/A,,Clear,0,2013-09-12 00:55:00
8:15 PM,73.4,68.0,83,30.03,10.0,Calm,Calm,-,N/A,,Clear,0,2013-09-12 01:15:00
8:35 PM,73.4,68.0,83,30.03,10.0,Calm,Calm,-,N/A,,Clear,0,2013-09-12 01:35:00
8:55 PM,73.4,68.0,83,30.03,10.0,Calm,Calm,-,N/A,,Clear,0,2013-09-12 01:55:00
9:15 PM,71.6,68.0,88,30.03,10.0,Calm,Calm,-,N/A,,Scattered Clouds,0,2013-09-12 02:15:00
9:35 PM,73.4,68.0,83,30.04,10.0,WSW,4.6,-,N/A,,Scattered Clouds,240,2013-09-12 02:35:00
9:55 PM,77.0,68.0,74,30.04,10.0,WNW,11.5,-,N/A,,Scattered Clouds,300,2013-09-12 02:55:00
10:15 PM,73.4,68.0,83,30.03,7.0,North,3.5,-,0.02,Rain-Thunderstorm,Rain,350,2013-09-12 03:15:00
10:35 PM,71.6,68.0,88,30.04,10.0,WSW,6.9,-,0.03,Thunderstorm,Thunderstorm,240,2013-09-12 03:35:00
10:55 PM,69.8,66.2,88,30.03,2.5,WNW,13.8,26.5,0.23,Rain-Thunderstorm,Heavy Thunderstorms and Rain,290,2013-09-12 03:55:00
11:15 PM,69.8,68.0,94,30.03,7.0,West,10.4,23.0,0.05,Rain-Thunderstorm,Heavy Thunderstorms and Rain,260,2013-09-12 04:15:00
11:35 PM,69.8,68.0,94,30.04,5.0,WSW,15.0,24.2,0.19,Rain,Heavy Rain,250,2013-09-12 04:35:00
11:55 PM,69.8,68.0,94,30.03,5.0,WSW,8.1,-,0.32,Rain-Thunderstorm,Rain,250,2013-09-12 04:55:00